createdAt,value
2016-11-08T12:30:09.624Z,-11.11
2016-11-08T12:31:09.538Z,-11.27
2016-11-08T12:32:09.516Z,-11.19
2016-11-08T12:33:09.518Z,-11.25
2016-11-08T12:34:09.776Z,-11.25
2016-11-08T12:35:09.459Z,-11.35
2016-11-08T12:36:09.439Z,-11.1
2016-11-08T12:37:09.547Z,-10.86
2016-11-08T12:38:09.385Z,-10.56
2016-11-08T12:39:09.329Z,-10.68
2016-11-08T12:40:09.306Z,-10.55
2016-11-08T12:41:09.293Z,-10.32
2016-11-08T12:42:09.271Z,-10.08
2016-11-08T12:43:09.243Z,-9.9
2016-11-08T12:44:09.213Z,-9.81
2016-11-08T12:45:09.218Z,-9.61
2016-11-08T12:46:09.195Z,-9.49
2016-11-08T12:47:09.139Z,-9.5
2016-11-08T12:48:09.112Z,-9.43
2016-11-08T12:49:09.406Z,-9.66
2016-11-08T12:50:09.077Z,-9.64
2016-11-08T12:51:09.031Z,-9.79
2016-11-08T12:52:09.018Z,-9.82
2016-11-08T12:53:08.997Z,-9.9
2016-11-08T12:54:08.981Z,-9.47
2016-11-08T12:55:08.945Z,-9.53
2016-11-08T12:56:08.921Z,-9.63
2016-11-08T12:57:08.905Z,-9.54
2016-11-08T12:58:08.881Z,-9.56
2016-11-08T12:59:08.830Z,-9.9
2016-11-08T13:00:08.824Z,-10.24
2016-11-08T13:01:08.814Z,-10.32
2016-11-08T13:02:08.768Z,-10.53
2016-11-08T13:03:09.034Z,-10.49
2016-11-08T13:04:08.728Z,-10.47
2016-11-08T13:05:08.717Z,-10.56
2016-11-08T13:06:08.672Z,-10.44
2016-11-08T13:07:08.647Z,-10.66
2016-11-08T13:08:08.615Z,-10.93
2016-11-08T13:09:08.622Z,-11.24
2016-11-08T13:10:08.878Z,-11.32
2016-11-08T13:11:08.546Z,-11.34
2016-11-08T13:12:08.545Z,-11.35
2016-11-08T13:13:08.519Z,-11.39
2016-11-08T13:14:08.480Z,-11.22
2016-11-08T13:15:08.484Z,-11.24
2016-11-08T13:16:08.465Z,-11.37
2016-11-08T13:17:08.382Z,-11.34
2016-11-08T13:18:08.430Z,-11.11
2016-11-08T13:19:08.382Z,-11.07
2016-11-08T13:20:08.309Z,-11.24
2016-11-08T13:21:08.303Z,-11.38
2016-11-08T13:22:08.264Z,-11.42
2016-11-08T13:23:08.252Z,-11.61
2016-11-08T13:24:08.227Z,-11.58
2016-11-08T13:25:08.185Z,-11.6
2016-11-08T13:26:08.163Z,-11.58
2016-11-08T13:27:08.160Z,-11.53
2016-11-08T13:28:08.102Z,-11.43
2016-11-08T13:29:08.092Z,-11.24
2016-11-08T13:30:08.067Z,-10.74
2016-11-08T13:31:08.063Z,-10.73
2016-11-08T13:32:08.019Z,-10.8
2016-11-08T13:33:08.213Z,-10.74
2016-11-08T13:34:07.969Z,-10.9
2016-11-08T13:35:07.946Z,-10.89
2016-11-08T13:36:07.908Z,-10.92
2016-11-08T13:37:07.900Z,-10.95
2016-11-08T13:38:07.857Z,-11.14
2016-11-08T13:39:07.825Z,-11.06
2016-11-08T13:40:07.822Z,-10.93
2016-11-08T13:41:07.810Z,-10.7
2016-11-08T13:42:07.786Z,-10.32
2016-11-08T13:43:07.735Z,-10.21
2016-11-08T13:44:07.767Z,-10.29
2016-11-08T13:45:07.703Z,-10.31
2016-11-08T13:46:07.680Z,-10.38
2016-11-08T13:47:07.646Z,-10.29
2016-11-08T13:48:07.622Z,-10.28
2016-11-08T13:49:07.592Z,-10.31
2016-11-08T13:50:07.566Z,-10.46
2016-11-08T13:51:07.538Z,-10.68
2016-11-08T13:52:07.543Z,-10.73
2016-11-08T13:53:07.490Z,-10.71
2016-11-08T13:54:07.483Z,-10.95
2016-11-08T13:55:07.455Z,-10.86
2016-11-08T13:56:07.452Z,-10.7
2016-11-08T13:57:07.418Z,-10.86
2016-11-08T13:58:07.359Z,-10.99
2016-11-08T13:59:07.345Z,-11.13
2016-11-08T14:00:07.335Z,-11.1
2016-11-08T14:01:07.291Z,-11.11
2016-11-08T14:02:07.270Z,-11.22
2016-11-08T14:03:07.254Z,-11.31
2016-11-08T14:04:07.238Z,-11.31
2016-11-08T14:05:07.202Z,-11.27
2016-11-08T14:06:07.180Z,-11.1
2016-11-08T14:07:07.164Z,-10.9
2016-11-08T14:08:07.125Z,-10.8
2016-11-08T14:09:07.103Z,-10.89
2016-11-08T14:10:07.082Z,-10.92
2016-11-08T14:11:07.375Z,-10.98
2016-11-08T14:12:07.023Z,-10.78
2016-11-08T14:13:07.001Z,-10.92
2016-11-08T14:14:06.973Z,-10.9
2016-11-08T14:15:06.955Z,-11.11
2016-11-08T14:16:06.932Z,-11.27
2016-11-08T14:17:06.889Z,-11.27
2016-11-08T14:18:06.887Z,-11.46
2016-11-08T14:19:06.850Z,-11.48
2016-11-08T14:20:06.861Z,-11.48
2016-11-08T14:21:06.843Z,-11.45
2016-11-08T14:22:06.783Z,-11.45
2016-11-08T14:23:06.755Z,-11.7
2016-11-08T14:24:06.729Z,-11.8
2016-11-08T14:25:06.707Z,-11.85
2016-11-08T14:26:06.680Z,-11.9
2016-11-08T14:27:06.670Z,-11.95
2016-11-08T14:28:06.639Z,-11.94
2016-11-08T14:29:06.619Z,-11.92
2016-11-08T14:30:06.571Z,-11.91
2016-11-08T14:31:06.561Z,-11.88
2016-11-08T14:32:06.537Z,-11.84
2016-11-08T14:33:06.500Z,-11.66
2016-11-08T14:34:06.464Z,-11.81
2016-11-08T14:35:06.432Z,-11.85
2016-11-08T14:36:06.403Z,-11.87
2016-11-08T14:37:06.393Z,-11.7
2016-11-08T14:38:06.356Z,-11.6
2016-11-08T14:39:06.343Z,-11.48
2016-11-08T14:40:06.318Z,-11.19
2016-11-08T14:41:06.303Z,-11.2
2016-11-08T14:42:06.274Z,-11.24
2016-11-08T14:43:06.246Z,-11.31
2016-11-08T14:44:06.215Z,-11.5
2016-11-08T14:45:06.196Z,-11.53
2016-11-08T14:46:06.210Z,-11.52
2016-11-08T14:47:06.161Z,-11.56
2016-11-08T14:48:06.127Z,-11.32
2016-11-08T14:49:06.132Z,-11.14
2016-11-08T14:50:06.072Z,-10.99
2016-11-08T14:51:06.044Z,-10.98
2016-11-08T14:52:06.030Z,-11.19
2016-11-08T14:53:05.998Z,-11.37
2016-11-08T14:54:06.027Z,-11.48
2016-11-08T14:55:05.949Z,-11.52
2016-11-08T14:56:05.924Z,-11.61
2016-11-08T14:57:05.873Z,-11.52
2016-11-08T14:58:05.869Z,-11.55
2016-11-08T14:59:05.837Z,-11.56
2016-11-08T15:00:05.851Z,-11.84
2016-11-08T15:01:05.787Z,-11.85
2016-11-08T15:02:05.980Z,-11.74
2016-11-08T15:03:05.742Z,-11.82
2016-11-08T15:04:05.731Z,-11.84
2016-11-08T15:05:05.678Z,-11.81
2016-11-08T15:06:05.657Z,-11.73
2016-11-08T15:07:05.641Z,-11.71
2016-11-08T15:08:05.607Z,-11.67
2016-11-08T15:09:05.570Z,-11.74
2016-11-08T15:10:05.573Z,-11.74
2016-11-08T15:11:05.541Z,-11.84
2016-11-08T15:12:05.494Z,-11.85
2016-11-08T15:13:05.490Z,-11.88
2016-11-08T15:14:05.457Z,-11.88
2016-11-08T15:15:05.427Z,-12.03
2016-11-08T15:16:05.552Z,-12.02
2016-11-08T15:17:05.371Z,-11.98
2016-11-08T15:18:05.365Z,-11.87
2016-11-08T15:19:05.318Z,-11.95
2016-11-08T15:20:05.312Z,-12
2016-11-08T15:21:05.280Z,-12.02
2016-11-08T15:22:05.254Z,-11.85
2016-11-08T15:23:05.206Z,-11.99
2016-11-08T15:24:05.193Z,-11.91
2016-11-08T15:25:05.547Z,-11.98
2016-11-08T15:26:05.129Z,-11.88
2016-11-08T15:27:05.117Z,-11.9
2016-11-08T15:28:05.099Z,-11.92
2016-11-08T15:29:05.096Z,-11.91
2016-11-08T15:30:05.102Z,-11.87
2016-11-08T15:31:05.013Z,-11.99
2016-11-08T15:32:04.974Z,-12.03
2016-11-08T15:33:04.979Z,-12.02
2016-11-08T15:34:04.931Z,-12
2016-11-08T15:35:04.909Z,-12.03
2016-11-08T15:36:04.898Z,-12.03
2016-11-08T15:37:04.887Z,-12
2016-11-08T15:38:04.819Z,-11.99
2016-11-08T15:39:04.820Z,-11.95
2016-11-08T15:40:04.772Z,-12.02
2016-11-08T15:41:04.753Z,-12.05
2016-11-08T15:42:04.719Z,-12
2016-11-08T15:43:05.107Z,-12.06
2016-11-08T15:44:04.982Z,-12.06
2016-11-08T15:45:04.648Z,-12.03
2016-11-08T15:46:04.608Z,-12.06
2016-11-08T15:47:04.594Z,-12.06
2016-11-08T15:48:04.558Z,-12.09
2016-11-08T15:49:04.557Z,-12.02
2016-11-08T15:50:04.516Z,-12.06
2016-11-08T15:51:04.495Z,-12.06
2016-11-08T15:52:04.456Z,-12.06
2016-11-08T15:53:04.449Z,-12.02
2016-11-08T15:54:04.401Z,-12.1
2016-11-08T15:55:04.370Z,-12.13
2016-11-08T15:56:04.365Z,-12.09
2016-11-08T15:57:04.322Z,-12.12
2016-11-08T15:58:04.310Z,-12.1
2016-11-08T15:59:04.276Z,-12.05
2016-11-08T16:00:04.247Z,-12
2016-11-08T16:01:04.218Z,-12.16
2016-11-08T16:02:04.510Z,-12.13
2016-11-08T16:03:04.169Z,-12.12
2016-11-08T16:04:04.152Z,-12.16
2016-11-08T16:05:04.123Z,-12.08
2016-11-08T16:06:04.068Z,-12.09
2016-11-08T16:07:04.044Z,-12.16
2016-11-08T16:08:04.042Z,-12.12
2016-11-08T16:09:04.007Z,-12.09
2016-11-08T16:10:03.994Z,-12.21
2016-11-08T16:11:03.952Z,-12.1
2016-11-08T16:12:03.936Z,-12.1
2016-11-08T16:13:03.930Z,-12.12
2016-11-08T16:14:03.870Z,-12.12
2016-11-08T16:15:03.863Z,-12.13
2016-11-08T16:16:04.030Z,-12.1
2016-11-08T16:17:03.791Z,-12.13
2016-11-08T16:18:03.776Z,-12.1
2016-11-08T16:19:03.744Z,-12.05
2016-11-08T16:20:03.719Z,-12.08
2016-11-08T16:21:03.671Z,-12.12
2016-11-08T16:22:03.642Z,-12.05
2016-11-08T16:23:03.644Z,-12.13
2016-11-08T16:24:03.933Z,-12.1
2016-11-08T16:25:03.580Z,-12.13
2016-11-08T16:26:03.549Z,-12.05
2016-11-08T16:27:03.516Z,-12.13
2016-11-08T16:28:03.507Z,-12.08
2016-11-08T16:29:03.483Z,-12.05
2016-11-08T16:30:03.443Z,-12.1
2016-11-08T16:31:03.414Z,-12.08
2016-11-08T16:32:03.390Z,-12.12
2016-11-08T16:33:03.378Z,-12.05
2016-11-08T16:34:03.349Z,-12.1
2016-11-08T16:35:03.348Z,-12.13
2016-11-08T16:36:03.297Z,-12.05
2016-11-08T16:37:03.267Z,-12.06
2016-11-08T16:38:03.541Z,-12.06
2016-11-08T16:39:03.189Z,-12.09
2016-11-08T16:40:03.175Z,-12.06
2016-11-08T16:41:03.136Z,-12.08
2016-11-08T16:42:03.129Z,-12.03
2016-11-08T16:43:03.092Z,-12.05
2016-11-08T16:44:03.069Z,-12.02
2016-11-08T16:45:03.057Z,-11.91
2016-11-08T16:46:03.038Z,-11.94
2016-11-08T16:47:03.012Z,-11.99
2016-11-08T16:48:02.965Z,-12.05
2016-11-08T16:49:02.935Z,-11.87
2016-11-08T16:50:02.893Z,-11.92
2016-11-08T16:51:02.883Z,-11.98
2016-11-08T16:52:02.863Z,-12.03
2016-11-08T16:53:02.825Z,-12.03
2016-11-08T16:54:02.790Z,-12
2016-11-08T16:55:02.797Z,-11.95
2016-11-08T16:56:02.752Z,-12.02
2016-11-08T16:57:02.725Z,-12.03
2016-11-08T16:58:02.700Z,-11.94
2016-11-08T16:59:02.680Z,-12.06
2016-11-08T17:00:02.653Z,-12.06
2016-11-08T17:01:02.627Z,-12
2016-11-08T17:02:02.609Z,-11.99
2016-11-08T17:03:02.576Z,-11.99
2016-11-08T17:04:02.549Z,-11.9
2016-11-08T17:05:02.503Z,-11.9
2016-11-08T17:06:02.499Z,-11.98
2016-11-08T17:07:02.451Z,-12.03
2016-11-08T17:08:02.445Z,-12
2016-11-08T17:09:02.436Z,-12.03
2016-11-08T17:10:02.403Z,-12.05
2016-11-08T17:11:02.351Z,-12.02
2016-11-08T17:12:02.331Z,-12.03
2016-11-08T17:13:02.316Z,-11.95
2016-11-08T17:14:02.268Z,-11.99
2016-11-08T17:15:02.259Z,-12.05
2016-11-08T17:16:02.230Z,-12.03
2016-11-08T17:17:02.235Z,-12.02
2016-11-08T17:18:02.160Z,-12.02
2016-11-08T17:19:02.151Z,-12.05
2016-11-08T17:20:02.123Z,-11.98
2016-11-08T17:21:02.103Z,-11.94
2016-11-08T17:22:02.068Z,-11.87
2016-11-08T17:23:02.037Z,-11.9
2016-11-08T17:24:02.022Z,-11.85
2016-11-08T17:25:02.199Z,-11.84
2016-11-08T17:26:01.964Z,-11.76
2016-11-08T17:27:01.934Z,-11.73
2016-11-08T17:28:01.905Z,-11.7
2016-11-08T17:29:01.900Z,-11.76
2016-11-08T17:30:01.868Z,-11.7
2016-11-08T17:31:01.835Z,-11.8
2016-11-08T17:32:01.809Z,-11.73
2016-11-08T17:33:01.788Z,-11.8
2016-11-08T17:34:01.778Z,-11.8
2016-11-08T17:35:01.722Z,-11.66
2016-11-08T17:36:01.706Z,-11.84
2016-11-08T17:37:01.686Z,-11.85
2016-11-08T17:38:01.675Z,-11.88
2016-11-08T17:39:01.636Z,-11.92
2016-11-08T17:40:01.623Z,-11.84
2016-11-08T17:41:01.585Z,-11.91
2016-11-08T17:42:01.571Z,-11.87
2016-11-08T17:43:01.527Z,-11.87
2016-11-08T17:44:01.537Z,-11.88
2016-11-08T17:45:01.513Z,-11.91
2016-11-08T17:46:01.459Z,-11.87
2016-11-08T17:47:01.434Z,-11.91
2016-11-08T17:48:01.414Z,-11.88
2016-11-08T17:49:01.557Z,-11.95
2016-11-08T17:50:01.553Z,-11.98
2016-11-08T17:51:01.322Z,-11.9
2016-11-08T17:52:01.289Z,-11.88
2016-11-08T17:53:01.303Z,-11.85
2016-11-08T17:54:01.236Z,-11.8
2016-11-08T17:55:01.199Z,-11.74
2016-11-08T17:56:01.194Z,-11.69
2016-11-08T17:57:01.148Z,-11.77
2016-11-08T17:58:01.154Z,-11.8
2016-11-08T17:59:01.123Z,-11.7
2016-11-08T18:00:01.076Z,-11.66
2016-11-08T18:01:01.074Z,-11.7
2016-11-08T18:02:01.031Z,-11.67
2016-11-08T18:03:01.003Z,-11.61
2016-11-08T18:04:00.972Z,-11.61
2016-11-08T18:05:00.961Z,-11.53
2016-11-08T18:06:00.936Z,-11.48
2016-11-08T18:07:00.913Z,-11.45
2016-11-08T18:08:00.888Z,-11.45
2016-11-08T18:09:00.854Z,-11.35
2016-11-08T18:10:00.827Z,-11.45
2016-11-08T18:11:00.810Z,-11.45
2016-11-08T18:12:00.793Z,-11.39
2016-11-08T18:13:00.744Z,-11.35
2016-11-08T18:14:00.736Z,-11.37
2016-11-08T18:15:00.913Z,-11.45
2016-11-08T18:16:00.879Z,-11.48
2016-11-08T18:17:00.838Z,-11.46
2016-11-08T18:18:00.631Z,-11.43
2016-11-08T18:19:00.647Z,-11.37
2016-11-08T18:20:00.585Z,-11.34
2016-11-08T18:21:00.547Z,-11.34
2016-11-08T18:22:00.528Z,-11.32
2016-11-08T18:23:00.504Z,-11.35
2016-11-08T18:24:00.466Z,-11.55
2016-11-08T18:25:00.452Z,-11.53
2016-11-08T18:26:00.430Z,-11.37
2016-11-08T18:27:00.419Z,-11.37
2016-11-08T18:28:00.397Z,-11.31
2016-11-08T18:29:00.353Z,-11.34
2016-11-08T18:30:00.334Z,-11.37
2016-11-08T18:31:00.309Z,-11.34
2016-11-08T18:32:00.271Z,-11.37
2016-11-08T18:33:00.260Z,-11.31
2016-11-08T18:34:00.283Z,-11.27
2016-11-08T18:35:00.204Z,-11.31
2016-11-08T18:36:00.191Z,-11.43
2016-11-08T18:37:00.158Z,-11.37
2016-11-08T18:38:00.133Z,-11.48
2016-11-08T18:39:00.099Z,-11.43
2016-11-08T18:40:00.084Z,-11.5
2016-11-08T18:41:00.045Z,-11.5
2016-11-08T18:42:00.032Z,-11.46
2016-11-08T18:43:00.205Z,-11.38
2016-11-08T18:43:59.997Z,-11.35
2016-11-08T18:44:59.969Z,-11.22
2016-11-08T18:45:59.934Z,-11.27
2016-11-08T18:46:59.909Z,-11.2
2016-11-08T18:47:59.891Z,-11.22
2016-11-08T18:48:59.862Z,-11.25
2016-11-08T18:49:59.855Z,-11.29
2016-11-08T18:50:59.819Z,-11.32
2016-11-08T18:51:59.787Z,-11.43
2016-11-08T18:52:59.753Z,-11.28
2016-11-08T18:53:59.729Z,-11.35
2016-11-08T18:54:59.860Z,-11.25
2016-11-08T18:55:59.686Z,-11.34
2016-11-08T18:56:59.651Z,-11.25
2016-11-08T18:57:59.617Z,-11.07
2016-11-08T18:58:59.625Z,-11.07
2016-11-08T18:59:59.879Z,-11.2
2016-11-08T19:00:59.573Z,-11.31
2016-11-08T19:01:59.538Z,-11.34
2016-11-08T19:03:00.040Z,-11.28
2016-11-08T19:03:59.480Z,-11.28
2016-11-08T19:04:59.481Z,-11.25
2016-11-08T19:05:59.421Z,-11.32
2016-11-08T19:06:59.454Z,-11.37
2016-11-08T19:07:59.371Z,-11.38
2016-11-08T19:08:59.339Z,-11.52
2016-11-08T19:09:59.321Z,-11.58
2016-11-08T19:10:59.314Z,-11.55
2016-11-08T19:11:59.280Z,-11.56
2016-11-08T19:12:59.261Z,-11.49
2016-11-08T19:13:59.228Z,-11.43
2016-11-08T19:14:59.205Z,-11.46
2016-11-08T19:15:59.213Z,-11.5
2016-11-08T19:16:59.172Z,-11.52
2016-11-08T19:17:59.110Z,-11.52
2016-11-08T19:18:59.103Z,-11.55
2016-11-08T19:19:59.071Z,-11.56
2016-11-08T19:20:59.032Z,-11.5
2016-11-08T19:21:59.029Z,-11.6
2016-11-08T19:22:59.007Z,-11.46
2016-11-08T19:23:58.959Z,-11.48
2016-11-08T19:24:58.947Z,-11.42
2016-11-08T19:25:58.926Z,-11.45
2016-11-08T19:26:58.878Z,-11.34
2016-11-08T19:27:58.863Z,-11.42
2016-11-08T19:28:58.850Z,-11.42
2016-11-08T19:29:58.821Z,-11.39
2016-11-08T19:30:59.123Z,-11.45
2016-11-08T19:31:58.776Z,-11.43
2016-11-08T19:32:58.765Z,-11.42
2016-11-08T19:33:58.715Z,-11.42
2016-11-08T19:34:58.714Z,-11.38
2016-11-08T19:35:58.687Z,-11.37
2016-11-08T19:36:58.631Z,-11.34
2016-11-08T19:37:58.627Z,-11.38
2016-11-08T19:38:58.603Z,-11.28
2016-11-08T19:39:58.558Z,-11.34
2016-11-08T19:40:58.528Z,-11.37
2016-11-08T19:41:58.509Z,-11.48
2016-11-08T19:42:58.499Z,-11.43
2016-11-08T19:43:58.463Z,-11.46
2016-11-08T19:44:58.442Z,-11.43
2016-11-08T19:45:58.413Z,-11.34
2016-11-08T19:46:58.368Z,-11.31
2016-11-08T19:47:58.352Z,-11.22
2016-11-08T19:48:58.317Z,-11.27
2016-11-08T19:49:58.304Z,-11.22
2016-11-08T19:50:58.291Z,-11.16
2016-11-08T19:51:58.276Z,-11.25
2016-11-08T19:52:58.217Z,-11.34
2016-11-08T19:53:58.192Z,-11.38
2016-11-08T19:54:58.178Z,-11.45
2016-11-08T19:55:58.162Z,-11.37
2016-11-08T19:56:58.166Z,-11.38
2016-11-08T19:57:58.093Z,-11.39
2016-11-08T19:58:58.088Z,-11.35
2016-11-08T19:59:58.068Z,-11.28
2016-11-08T20:00:58.028Z,-11.24
2016-11-08T20:01:58.010Z,-11.22
2016-11-08T20:02:57.998Z,-11.19
2016-11-08T20:03:57.959Z,-11.07
2016-11-08T20:04:57.926Z,-10.96
2016-11-08T20:05:57.893Z,-10.96
2016-11-08T20:06:57.901Z,-11.1
2016-11-08T20:07:57.874Z,-11.2
2016-11-08T20:08:57.842Z,-11.14
2016-11-08T20:09:57.821Z,-11.04
2016-11-08T20:10:57.777Z,-10.98
2016-11-08T20:11:57.760Z,-10.89
2016-11-08T20:12:57.749Z,-10.89
2016-11-08T20:13:57.709Z,-10.86
2016-11-08T20:14:57.678Z,-10.77
2016-11-08T20:15:57.642Z,-10.77
2016-11-08T20:16:57.672Z,-10.92
2016-11-08T20:17:57.604Z,-10.81
2016-11-08T20:18:57.584Z,-10.96
2016-11-08T20:19:57.562Z,-10.89
2016-11-08T20:20:57.523Z,-10.89
2016-11-08T20:21:57.577Z,-10.99
2016-11-08T20:22:57.488Z,-11.13
2016-11-08T20:23:57.776Z,-11.14
2016-11-08T20:24:57.428Z,-11.22
2016-11-08T20:25:57.409Z,-11.29
2016-11-08T20:26:57.393Z,-11.24
2016-11-08T20:27:57.366Z,-11.11
2016-11-08T20:28:57.340Z,-11.2
2016-11-08T20:29:57.295Z,-11.27
2016-11-08T20:30:57.284Z,-11.28
2016-11-08T20:31:57.297Z,-11.22
2016-11-08T20:32:57.242Z,-11.14
2016-11-08T20:33:57.212Z,-10.93
2016-11-08T20:34:57.185Z,-10.98
2016-11-08T20:35:57.153Z,-10.88
2016-11-08T20:36:57.143Z,-10.89
2016-11-08T20:37:57.119Z,-10.86
2016-11-08T20:38:57.092Z,-10.86
2016-11-08T20:39:57.073Z,-10.96
2016-11-08T20:40:57.054Z,-11.1
2016-11-08T20:41:57.022Z,-11.13
2016-11-08T20:42:57.010Z,-11.24
2016-11-08T20:43:57.008Z,-11.27
2016-11-08T20:44:56.934Z,-11.19
2016-11-08T20:45:56.900Z,-11.17
2016-11-08T20:46:56.904Z,-11.13
2016-11-08T20:47:56.872Z,-10.99
2016-11-08T20:48:56.829Z,-10.88
2016-11-08T20:49:56.800Z,-10.86
2016-11-08T20:50:56.791Z,-10.89
2016-11-08T20:51:56.779Z,-10.98
2016-11-08T20:52:56.752Z,-11.22
2016-11-08T20:53:56.702Z,-11.28
2016-11-08T20:54:56.702Z,-11.31
2016-11-08T20:55:56.675Z,-11.24
2016-11-08T20:56:56.659Z,-11.25
2016-11-08T20:57:56.634Z,-11.22
2016-11-08T20:58:56.597Z,-11.34
2016-11-08T20:59:56.569Z,-11.48
2016-11-08T21:00:56.542Z,-11.6
2016-11-08T21:01:56.516Z,-11.58
2016-11-08T21:02:56.498Z,-11.43
2016-11-08T21:03:56.467Z,-11.55
2016-11-08T21:04:56.441Z,-11.38
2016-11-08T21:05:56.418Z,-11.37
2016-11-08T21:06:56.407Z,-11.39
2016-11-08T21:07:56.345Z,-11.45
2016-11-08T21:08:56.340Z,-11.46
2016-11-08T21:09:56.296Z,-11.55
2016-11-08T21:10:56.282Z,-11.53
2016-11-08T21:11:56.249Z,-11.55
2016-11-08T21:12:56.218Z,-11.49
2016-11-08T21:13:56.194Z,-11.55
2016-11-08T21:14:56.187Z,-11.61
2016-11-08T21:15:56.172Z,-11.49
2016-11-08T21:16:56.149Z,-11.37
2016-11-08T21:17:56.279Z,-11.28
2016-11-08T21:18:56.075Z,-11.19
2016-11-08T21:19:56.066Z,-11.19
2016-11-08T21:20:56.010Z,-11.32
2016-11-08T21:21:56.009Z,-11.31
2016-11-08T21:22:55.970Z,-11.28
2016-11-08T21:23:55.949Z,-11.45
2016-11-08T21:24:55.941Z,-11.53
2016-11-08T21:25:56.213Z,-11.64
2016-11-08T21:26:55.873Z,-11.55
2016-11-08T21:27:55.855Z,-11.64
2016-11-08T21:28:55.815Z,-11.53
2016-11-08T21:29:55.807Z,-11.63
2016-11-08T21:30:55.766Z,-11.53
2016-11-08T21:31:55.739Z,-11.53
2016-11-08T21:32:55.709Z,-11.42
2016-11-08T21:33:55.691Z,-11.31
2016-11-08T21:34:55.660Z,-11.22
2016-11-08T21:35:55.625Z,-11.07
2016-11-08T21:36:55.638Z,-11.13
2016-11-08T21:37:55.902Z,-11.1
2016-11-08T21:38:55.569Z,-11.11
2016-11-08T21:39:55.538Z,-11.22
2016-11-08T21:40:55.514Z,-11.17
2016-11-08T21:41:55.523Z,-11.24
2016-11-08T21:42:55.470Z,-11.28
2016-11-08T21:43:55.436Z,-11.14
2016-11-08T21:44:55.421Z,-11.07
2016-11-08T21:45:55.673Z,-11.16
2016-11-08T21:46:55.363Z,-11.14
2016-11-08T21:47:55.379Z,-11.11
2016-11-08T21:48:55.312Z,-11.02
2016-11-08T21:49:55.294Z,-10.88
2016-11-08T21:50:55.273Z,-10.81
2016-11-08T21:51:55.255Z,-10.86
2016-11-08T21:52:55.235Z,-10.71
2016-11-08T21:53:55.205Z,-10.66
2016-11-08T21:54:55.184Z,-10.77
2016-11-08T21:55:55.133Z,-10.76
2016-11-08T21:56:55.116Z,-10.71
2016-11-08T21:57:55.086Z,-10.81
2016-11-08T21:58:55.061Z,-10.93
2016-11-08T21:59:55.056Z,-11.14
2016-11-08T22:00:54.998Z,-11.31
2016-11-08T22:01:54.975Z,-11.32
2016-11-08T22:02:54.963Z,-11.28
2016-11-08T22:03:54.941Z,-11.34
2016-11-08T22:04:54.935Z,-11.29
2016-11-08T22:05:55.230Z,-11.37
2016-11-08T22:06:54.874Z,-11.38
2016-11-08T22:07:54.844Z,-11.42
2016-11-08T22:08:54.875Z,-11.52
2016-11-08T22:09:54.772Z,-11.49
2016-11-08T22:10:54.779Z,-11.56
2016-11-08T22:11:54.729Z,-11.52
2016-11-08T22:12:54.711Z,-11.56
2016-11-08T22:13:54.674Z,-11.53
2016-11-08T22:14:54.667Z,-11.55
2016-11-08T22:15:54.636Z,-11.42
2016-11-08T22:16:54.619Z,-11.48
2016-11-08T22:17:54.583Z,-11.37
2016-11-08T22:18:54.551Z,-11.32
2016-11-08T22:19:54.532Z,-11.31
2016-11-08T22:20:54.811Z,-11.27
2016-11-08T22:21:54.483Z,-11.29
2016-11-08T22:22:54.477Z,-11.35
2016-11-08T22:23:54.420Z,-11.35
2016-11-08T22:24:54.407Z,-11.32
2016-11-08T22:25:54.365Z,-11.28
2016-11-08T22:26:54.351Z,-11.22
2016-11-08T22:27:54.329Z,-11.17
2016-11-08T22:28:54.313Z,-11.2
2016-11-08T22:29:54.286Z,-11.38
2016-11-08T22:30:54.275Z,-11.53
2016-11-08T22:31:54.228Z,-11.52
2016-11-08T22:32:54.188Z,-11.52
2016-11-08T22:33:54.195Z,-11.58
2016-11-08T22:34:54.144Z,-11.55
2016-11-08T22:35:54.146Z,-11.6
2016-11-08T22:36:54.120Z,-11.53
2016-11-08T22:37:54.063Z,-11.55
2016-11-08T22:38:54.048Z,-11.55
2016-11-08T22:39:54.030Z,-11.56
2016-11-08T22:40:54.016Z,-11.56
2016-11-08T22:41:53.974Z,-11.61
2016-11-08T22:42:53.964Z,-11.6
2016-11-08T22:43:53.937Z,-11.73
2016-11-08T22:44:53.920Z,-11.74
2016-11-08T22:45:53.892Z,-11.73
2016-11-08T22:46:53.850Z,-11.8
2016-11-08T22:47:53.818Z,-11.84
2016-11-08T22:48:53.784Z,-11.82
2016-11-08T22:49:53.763Z,-11.7
2016-11-08T22:50:53.745Z,-11.7
2016-11-08T22:51:53.735Z,-11.63
2016-11-08T22:52:53.680Z,-11.69
2016-11-08T22:53:53.662Z,-11.55
2016-11-08T22:54:53.626Z,-11.61
2016-11-08T22:55:53.598Z,-11.61
2016-11-08T22:56:53.570Z,-11.6
2016-11-08T22:57:53.562Z,-11.46
2016-11-08T22:58:53.548Z,-11.52
2016-11-08T22:59:53.520Z,-11.63
2016-11-08T23:00:53.501Z,-11.63
2016-11-08T23:01:53.437Z,-11.55
2016-11-08T23:02:53.445Z,-11.5
2016-11-08T23:03:53.395Z,-11.55
2016-11-08T23:04:53.384Z,-11.49
2016-11-08T23:05:53.358Z,-11.52
2016-11-08T23:06:53.334Z,-11.64
2016-11-08T23:07:53.302Z,-11.61
2016-11-08T23:08:53.261Z,-11.58
2016-11-08T23:09:53.247Z,-11.52
2016-11-08T23:10:53.213Z,-11.6
2016-11-08T23:11:53.206Z,-11.74
2016-11-08T23:12:53.194Z,-11.76
2016-11-08T23:13:53.167Z,-11.81
2016-11-08T23:14:53.119Z,-11.8
2016-11-08T23:15:53.100Z,-11.7
2016-11-08T23:16:53.081Z,-11.53
2016-11-08T23:17:53.056Z,-11.73
2016-11-08T23:18:53.022Z,-11.87
2016-11-08T23:19:52.977Z,-11.76
2016-11-08T23:20:52.958Z,-11.66
2016-11-08T23:21:52.961Z,-11.7
2016-11-08T23:22:52.906Z,-11.63
2016-11-08T23:23:52.885Z,-11.64
2016-11-08T23:24:52.868Z,-11.71
2016-11-08T23:25:52.858Z,-11.7
2016-11-08T23:26:52.831Z,-11.7
2016-11-08T23:27:52.787Z,-11.76
2016-11-08T23:28:52.772Z,-11.88
2016-11-08T23:29:52.742Z,-11.99
2016-11-08T23:30:53.053Z,-11.98
2016-11-08T23:31:52.676Z,-11.99
2016-11-08T23:32:52.673Z,-12.13
2016-11-08T23:33:52.631Z,-12.05
2016-11-08T23:34:52.591Z,-12.2
2016-11-08T23:35:52.603Z,-12.12
2016-11-08T23:36:52.569Z,-12.17
2016-11-08T23:37:52.823Z,-12.16
2016-11-08T23:38:52.513Z,-12.24
2016-11-08T23:39:52.501Z,-12.13
2016-11-08T23:40:52.458Z,-12.16
2016-11-08T23:41:52.426Z,-12.12
2016-11-08T23:42:52.403Z,-12.03
2016-11-08T23:43:52.363Z,-11.9
2016-11-08T23:44:52.341Z,-11.98
2016-11-08T23:45:52.345Z,-11.92
2016-11-08T23:46:52.289Z,-11.91
2016-11-08T23:47:52.274Z,-11.92
2016-11-08T23:48:52.233Z,-11.92
2016-11-08T23:49:52.217Z,-11.82
2016-11-08T23:50:52.181Z,-11.92
2016-11-08T23:51:52.177Z,-11.9
2016-11-08T23:52:52.132Z,-11.87
2016-11-08T23:53:52.132Z,-11.9
2016-11-08T23:54:52.100Z,-12.02
2016-11-08T23:55:52.074Z,-12
2016-11-08T23:56:52.058Z,-12.13
2016-11-08T23:57:52.019Z,-12.09
2016-11-08T23:58:51.980Z,-12.05
2016-11-08T23:59:52.007Z,-12.08
